Skip to content.

Marlborough Kaikoura

  

Glenveigh - GLK

Logged in to unit HSN10196 as: Guest
(Last data received Sun 18 Feb 2018 10:30:00 - 2 minutes ago)

All FWI Graphs Forecast Hourly FWI Daily FWI Download FWI Data

Hourly FWI Logs | Period From 10:30 17/02/2018 to 10:30 18/02/2018

Change the DoC% for the 24hr period starting 12:00pm 17/2/2018 to

If the date above is the current day, then all future logs will inherit this value until such time as it is changed again. If you wish to change historic values you can do so by going back to the day you want to alter (navigate via the graphs) and change the DoC% there (however this will only affect that day).

WindRainHourly FWIsDaily FWIsForestGrassScrub
DateTime (NZST)Temp (C)RH (%)Dir (deg)Speed (km/h)Hourly (mm)Daily (mm)FFMCISIHFWIFFMCDMCDCISIBUIFWIDSRROS (m/h)FFI (kW/m)FFDCDoC (%)ROS (m/h)GFI (kW/m)GFDCROS (m/h)SFI (kW/m)SFDC
18/02/2018 0900 22.9 51.8 121 6.8 0.0 84.8 2.9 6.8 90 247 M 55 28 49 M 622 6223 E
18/02/2018 0800 18.9 59.6 282 11.5 0.0 84.4 3.5 8.0 118 324 M 55 38 66 M 783 7831 E
18/02/2018 0700 16.8 67.7 292 13.3 0.0 84.3 3.7 8.5 131 359 M 55 42 74 M 855 8550 E
18/02/2018 0600 15.3 75.2 300 12.6 0.0 84.3 3.6 8.3 125 341 M 55 40 70 M 817 8173 E
18/02/2018 0500 15.3 77.9 282 15.1 0.0 84.4 4.1 9.3 153 418 M 55 50 87 M 972 9716 E
18/02/2018 0400 14.9 83.1 281 7.9 0.0 84.6 3.0 7.0 94 256 M 55 29 51 M 641 6409 E
18/02/2018 0300 15.3 79.9 252 5.8 0.0 85.0 2.8 6.7 87 238 M 55 27 47 M 602 6023 E
18/02/2018 0200 16.6 78.8 295 7.9 0.0 85.4 3.3 7.7 110 302 M 55 35 61 M 737 7373 E
18/02/2018 0100 16.2 77.9 293 8.3 0.0 85.8 3.6 8.2 122 335 M 55 39 68 M 805 8052 E
18/02/2018 0000 16.1 82.0 282 14.0 0.0 86.2 5.0 11.0 201 549 H 55 68 118 M 1223 12227 E
17/02/2018 2300 17.6 74.4 14 3.6 0.0 86.9 3.3 7.6 109 298 M 55 35 60 M 730 7302 E
17/02/2018 2200 17.6 74.7 5 4.3 0.0 87.3 3.6 8.3 125 341 M 55 40 70 M 819 8190 E
17/02/2018 2100 18.4 72.9 78 4.7 0.0 87.7 3.9 8.9 141 386 M 55 46 80 M 909 9093 E
17/02/2018 2000 17.6 77.9 57 11.5 0.0 88.2 5.9 12.5 251 686 H 55 87 152 M 1471 14713 E
17/02/2018 1900 21.3 64.1 161 18.7 0.0 89.1 9.6 18.2 457 1251 H 55 179 313 M 2395 23945 E
17/02/2018 1800 23.8 53.7 175 10.8 0.0 89.6 7.0 14.2 309 844 H 55 111 194 M 1746 17456 E
17/02/2018 1700 23.4 54.8 89 11.2 0.0 89.7 7.2 14.6 323 884 H 55 117 205 M 1813 18127 E
17/02/2018 1600 22.6 59.4 144 23.8 0.0 89.9 14.0 23.8 671 1836 H 55 299 524 H 3219 32189 E
17/02/2018 1500 28.6 41.4 49 10.1 0.0 90.4 7.6 15.1 343 937 H 55 126 220 M 1901 19006 E
17/02/2018 1400 27.8 49.5 221 15.8 0.0 90.4 10.1 18.8 482 1318 H 55 191 335 M 2495 24952 E
17/02/2018 1300 24.3 56.8 10 19.1 0.0 90.4 11.9 21.2 576 1574 H 55 242 423 M 2865 28646 E
17/02/2018 1200 23.9 60.4 296 6.5 0.0 0.0 90.9 6.8 13.9 85.8 20.8 299.3 3.3 35.4 7.6 1.0 298 814 H 55 106 186 M 1694 16942 E
17/02/2018 1100 24.0 47.8 128 18.7 0.0 91.5 13.6 22.3 634 1463 H 55 288 503 H 3151 31509 E
17/02/2018 1000 30.4 32.7 297 10.8 0.0 91.8 9.5 17.2 438 1012 H 55 176 308 M 2371 23708 E